Highfalls, North Carolina
Current Conditions -  °F | °C
As of 11:35 AM on Tuesday 21 Oct 2014 (Local Time) from K5W8 Reporting Station
Clear Clear  
Wind Chill: 68°   Ceiling: Unl
Heat Index: 68°   Visibility: 10mi
Dew Point: 50°   Wind: 5mph
Humidity: 52%   Direction: 270°W
Pressure: 29.93"   Gusts: NA
Location:  35.48°N, 79.52°W
Report Text: K5W8 211535Z AUTO 27004KT 10SM CLR 20/10 A2993 RMK AO2 T01980098
Loading
Personal Weather Stations






























Interactive Weather Map
Tropical Storm Tracking
New forecast layout! Learn more

10-Day Weather Forecast

Advertisements
Track Severe Weather on mobile